首页
METAR-TAF:

METAR-TAF

机场 :

特鲁瓦, 法国

纬度: 48-20N, 经度: 004-01E, 海拔: 118米

当前天气观测

该预报发布于22分钟前的07:00 UTC
风速12节,风向西转西南
温度 9°C
湿度 81%
气压 1009 hPa
能见度10公里或以上
散云层高于1700英尺
散云层高于2300英尺
多云层高于15000英尺

METAR: LFQB 130700Z AUTO 25012KT 9999 SCT017 SCT023 BKN150 09/06 Q1009

时间: 09:22 (07:22 UTC)


TAF: 丢失

超过4000个机场的气象观测和天气预报(METAR&TAF报告)。

可查询的气象台以黄色和红色小点在地图上表示。

将鼠标移到小点上方,可查看气象台名称。

然后点击查看天气观测和预报。

如需切换地图:点击带黑十字的绿色按钮放大地图;点击带横线的绿色按钮缩小地图;或者点击绿色箭头查看邻近地区的地图。


METAR-TAF: